METAR Data
IDs: Format: Raw Decoded Include TAF

Data at: 1303 UTC 23 Sep 2018

KRSW 231253Z 08005KT 10SM CLR 26/24 A2999 RMK AO2 SLP152 T02610244
KRSW 231153Z 07004KT 10SM CLR 24/24 A2998 RMK AO2 SLP148 70084 T02440239 10250 20239 53013
KRSW 231053Z 07003KT 10SM CLR 24/23 A2996 RMK AO2 SLP141 T02390233
KRSW 230953Z AUTO 07005KT 10SM CLR 24/23 A2995 RMK AO2 SLP139 T02390233
KRSW 230853Z AUTO 08003KT 10SM CLR 24/24 A2994 RMK AO2 SLP135 T02440239 56011
KRSW 230753Z AUTO 07004KT 10SM CLR 24/24 A2995 RMK AO2 SLP139 T02440239
KRSW 230653Z AUTO 00000KT 10SM CLR 24/24 A2996 RMK AO2 SLP142 T02440239
KRSW 230553Z AUTO 09004KT 10SM CLR 25/24 A2997 RMK AO2 SLP146 60000 T02500239 10256 20250 58008
KRSW 230453Z AUTO 08003KT 10SM CLR 25/24 A2998 RMK AO2 SLP150 T02500244 403330239
KRSW 230353Z 08005KT 10SM CLR 25/24 A2999 RMK AO2 SLP153 T02500244
KRSW 230253Z AUTO 09005KT 10SM CLR 25/24 A3000 RMK AO2 SLP155 60000 T02500244 53010
KRSW 230153Z AUTO 06004KT 10SM CLR 26/24 A2999 RMK AO2 SLP151 T02560244
KRSW 230053Z 01003KT 10SM FEW100 26/24 A2996 RMK AO2 RAE02 TSE04 SLP144 P0000 T02560244
KRSW 230030Z 08004KT 10SM SCT080 BKN110 26/25 A2995 RMK AO2 RAE02 TSE04 P0000 T02560250
KRSW 230006Z 00000KT 10SM VCTS BKN030 OVC080 25/24 A2996 RMK AO2 RAE02 TSE04 P0000 T02500244
KRSW 222353Z 36005KT 10SM -TSRA OVC029 26/25 A2997 RMK AO2 TSB09E36B49 SLP145 P0076 60084 T02560250 10333 20250 53007
KRSW 222342Z 00000KT 10SM VCTS -RA OVC029 26/24 A2997 RMK AO2 TSB09E36 P0076 T02560239
KRSW 222324Z 22007KT 3SM +TSRA BR SCT015 BKN029 OVC044 25/23 A2996 RMK AO2 LTG DSNT NW TSB09 P0075 T02500233
KRSW 222317Z 20004KT 1SM +TSRA BR FEW008 BKN015 OVC029 25/24 A2996 RMK AO2 LTG DSNT NW TSB09 P0072 T02500239
KRSW 222310Z 20006KT 3/4SM +TSRA BR FEW010 BKN017 OVC024 25/24 A2996 RMK AO2 TSB09 P0061 T02500244
KRSW 222304Z 17012KT 1 1/2SM VCTS +RA BR FEW010 BKN017 OVC030 26/24 A2996 RMK AO2 P0029 T02560244
KRSW 222255Z 16010KT 10SM VCTS -RA SCT010 BKN023 OVC055 26/25 A2996 RMK AO2 P0001 T02610250
KRSW 222253Z 18008KT 10SM -RA SCT010 BKN023 OVC055 26/25 A2995 RMK AO2 LTG DSNT N AND NE RAB03 SLP141 P0008 T02610250
KRSW 222153Z 36005KT 10SM SCT045 SCT050 29/24 A2993 RMK AO2 LTG DSNT ALQDS SLP134 T02890239
KRSW 222146Z 36004KT 10SM FEW045 29/23 A2993 RMK AO2 LTG DSNT ALQDS T02890233
KRSW 222131Z 01007KT 9SM VCTS CLR 29/24 A2993 RMK AO2 LTG DSNT ALQDS T02890239
KRSW 222100Z 34004KT 10SM CLR 30/24 A2994 RMK AO2 LTG DSNT ALQDS T03000239
KRSW 222053Z 34003KT 10SM VCTS SCT038 29/24 A2995 RMK AO2 LTG DSNT ALQDS TSB1958E00 SLP138 T02940239 55004
KRSW 222040Z 00000KT 10SM VCTS SCT038 31/24 A2994 RMK AO2 LTG DSNT N AND SE AND S TSB1958E00 T03060239
KRSW 222030Z 06004KT 10SM CLR 31/24 A2994 RMK AO2 LTG DSNT N AND SE AND S TSB1958E00 T03110239
KRSW 221953Z 03009KT 10SM VCTS SCT036 29/23 A2994 RMK AO2 LTG DSNT SE AND S SLP137 T02890228
KRSW 221853Z VRB03KT 10SM BKN032 BKN060 32/22 A2996 RMK AO2 SLP142 T03220222
KRSW 221753Z VRB03KT 10SM FEW038 32/23 A2998 RMK AO2 SLP149 T03220228 10322 20244 58015
KRSW 221653Z 06007KT 10SM FEW036 FEW048 31/23 A3001 RMK AO2 SLP158 T03110233
KRSW 221553Z COR 09008KT 10SM SCT030 29/23 A3002 RMK AO2 SLP163 T02940233
KRSW 221453Z 08007KT 030V130 10SM FEW019 29/24 A3002 RMK AO2 SLP164 T02890244 53009
KRSW 221353Z 06006KT 10SM CLR 27/24 A3001 RMK AO2 SLP161 T02720244
KRSW 221253Z 06009KT 10SM CLR 26/24 A3000 RMK AO2 SLP157 T02610244
KRSW 221153Z 05006KT 8SM CLR 24/24 A3000 RMK AO2 SLP155 70024 T02440239 10250 20239 50001
KRSW 221053Z 06003KT 9SM CLR 24/24 A3000 RMK AO2 SLP156 T02390239
KRSW 220953Z AUTO 03003KT 9SM CLR 24/24 A3000 RMK AO2 SLP155 T02390239
KRSW 220853Z AUTO 04003KT 10SM CLR 24/24 A2999 RMK AO2 SLP154 T02440239 56009
KRSW 220753Z AUTO 05005KT 10SM CLR 24/24 A3000 RMK AO2 SLP154 T02440239
KRSW 220653Z AUTO 07004KT 10SM CLR 24/24 A3000 RMK AO2 SLP158 T02440239
KRSW 220553Z AUTO 01003KT 10SM CLR 24/24 A3002 RMK AO2 SLP163 60001 T02440239 10250 20239 58010
KRSW 220453Z AUTO 05005KT 10SM CLR 24/24 A3003 RMK AO2 SLP167 T02440239 403330239
KRSW 220353Z 00000KT 10SM CLR 25/24 A3004 RMK AO2 SLP170 T02500244
KRSW 220253Z 00000KT 10SM CLR 24/24 A3005 RMK AO2 SLP173 60001 T02440239 50020
KRSW 220153Z 00000KT 10SM CLR 24/24 A3005 RMK AO2 SLP174 T02440239